createdAt,value
2022-12-01T00:00:02.117Z,75.43
2022-12-01T00:02:53.769Z,69.20
2022-12-01T00:05:25.521Z,67.03
2022-12-01T00:07:59.154Z,68.03
2022-12-01T00:10:33.526Z,60.78
2022-12-01T00:13:06.639Z,65.28
2022-12-01T00:15:38.296Z,61.53
2022-12-01T00:18:10.363Z,62.33
2022-12-01T00:20:42.069Z,66.43
2022-12-01T00:23:13.685Z,60.40
2022-12-01T00:25:48.786Z,57.13
2022-12-01T00:28:20.380Z,61.55
2022-12-01T00:30:51.989Z,59.78
2022-12-01T00:33:23.687Z,55.50
2022-12-01T00:36:01.938Z,66.22
2022-12-01T00:38:37.148Z,64.85
2022-12-01T00:41:09.833Z,61.03
2022-12-01T00:43:43.825Z,56.60
2022-12-01T00:46:15.589Z,63.03
2022-12-01T00:48:47.692Z,60.80
2022-12-01T00:51:19.252Z,62.42
2022-12-01T00:53:51.220Z,64.03
2022-12-01T00:56:22.797Z,64.00
2022-12-01T00:58:54.360Z,61.35
2022-12-01T01:01:26.348Z,65.32
2022-12-01T01:04:00.940Z,62.00
2022-12-01T01:06:32.568Z,57.80
2022-12-01T01:09:04.253Z,67.05
2022-12-01T01:11:38.653Z,61.33
2022-12-01T01:14:13.355Z,60.15
2022-12-01T01:16:45.217Z,67.05
2022-12-01T01:19:20.046Z,66.38
2022-12-01T01:21:54.023Z,64.68
2022-12-01T01:24:32.786Z,63.75
2022-12-01T01:27:06.586Z,64.20
2022-12-01T01:29:42.571Z,60.55
2022-12-01T01:32:14.179Z,62.95
2022-12-01T01:34:52.461Z,60.70
2022-12-01T01:37:24.049Z,59.47
2022-12-01T01:39:55.583Z,58.85
2022-12-01T01:42:27.162Z,58.78
2022-12-01T01:44:59.245Z,58.05
2022-12-01T01:47:34.781Z,58.65
2022-12-01T01:50:12.719Z,62.65
2022-12-01T01:53:07.901Z,56.10
2022-12-01T01:55:39.896Z,64.90
2022-12-01T01:58:12.159Z,60.35
2022-12-01T02:00:47.291Z,57.63
2022-12-01T02:03:22.484Z,57.90
2022-12-01T02:05:54.102Z,58.75
2022-12-01T02:08:25.949Z,58.17
2022-12-01T02:11:22.983Z,56.42
2022-12-01T02:14:10.780Z,56.67
2022-12-01T02:17:19.829Z,61.50
2022-12-01T02:20:42.425Z,58.75
2022-12-01T02:23:25.687Z,62.33
2022-12-01T02:26:32.316Z,60.95
2022-12-01T02:29:40.780Z,55.95
2022-12-01T02:32:32.080Z,59.78
2022-12-01T02:35:24.036Z,59.88
2022-12-01T02:38:20.544Z,55.65
2022-12-01T02:41:20.607Z,57.80
2022-12-01T02:44:19.871Z,58.45
2022-12-01T02:47:02.672Z,58.00
2022-12-01T02:49:38.734Z,57.38
2022-12-01T02:52:15.182Z,66.50
2022-12-01T02:54:50.415Z,63.33
2022-12-01T02:57:23.504Z,65.97
2022-12-01T02:59:57.135Z,61.10
2022-12-01T03:02:43.354Z,69.82
2022-12-01T03:05:48.193Z,65.60
2022-12-01T03:08:35.445Z,63.75
2022-12-01T03:11:07.165Z,71.05
2022-12-01T03:13:51.132Z,66.03
2022-12-01T03:16:37.285Z,67.68
2022-12-01T03:19:22.353Z,62.13
2022-12-01T03:22:27.545Z,59.95
2022-12-01T03:25:04.028Z,62.05
2022-12-01T03:28:00.578Z,56.72
2022-12-01T03:30:38.368Z,51.78
2022-12-01T03:33:19.405Z,55.17
2022-12-01T03:36:10.899Z,57.88
2022-12-01T03:38:54.280Z,53.85
2022-12-01T03:41:38.904Z,55.50
2022-12-01T03:44:25.207Z,55.08
2022-12-01T03:47:14.612Z,48.53
2022-12-01T03:49:50.315Z,51.10
2022-12-01T03:52:56.042Z,55.47
2022-12-01T03:55:31.411Z,60.40
2022-12-01T03:58:13.572Z,56.92
2022-12-01T04:00:49.996Z,57.85
2022-12-01T04:03:25.167Z,53.50
2022-12-01T04:06:01.040Z,55.10
2022-12-01T04:08:33.854Z,62.35
2022-12-01T04:11:32.470Z,55.55
2022-12-01T04:14:04.469Z,55.38
2022-12-01T04:16:38.255Z,59.75
2022-12-01T04:19:11.073Z,54.10
2022-12-01T04:21:42.759Z,49.85
2022-12-01T04:24:15.694Z,48.03
2022-12-01T04:26:47.524Z,48.92
2022-12-01T04:29:19.101Z,49.60
2022-12-01T04:31:50.788Z,43.25
2022-12-01T04:34:24.568Z,48.08
2022-12-01T04:36:58.252Z,45.58
2022-12-01T04:39:29.859Z,51.10
2022-12-01T04:42:02.431Z,50.05
2022-12-01T04:44:35.229Z,45.17
2022-12-01T04:47:09.716Z,50.15
2022-12-01T04:49:41.325Z,44.05
2022-12-01T04:52:12.968Z,46.47
2022-12-01T04:54:44.806Z,45.00
2022-12-01T04:57:16.393Z,42.38
2022-12-01T04:59:48.390Z,46.53
2022-12-01T05:02:20.246Z,43.78
2022-12-01T05:04:52.189Z,46.13
2022-12-01T05:07:23.824Z,46.53
2022-12-01T05:09:57.726Z,43.38
2022-12-01T05:12:31.408Z,45.30
2022-12-01T05:15:03.054Z,47.78
2022-12-01T05:17:37.664Z,48.08
2022-12-01T05:20:36.316Z,44.22
2022-12-01T05:23:13.583Z,44.83
2022-12-01T05:25:51.064Z,46.13
2022-12-01T05:28:24.776Z,43.33
2022-12-01T05:31:02.286Z,45.90
2022-12-01T05:33:33.951Z,44.05
2022-12-01T05:36:05.848Z,44.80
2022-12-01T05:38:37.419Z,47.55
2022-12-01T05:41:12.132Z,44.28
2022-12-01T05:43:43.993Z,48.28
2022-12-01T05:46:15.754Z,48.58
2022-12-01T05:48:47.414Z,42.58
2022-12-01T05:51:22.193Z,46.67
2022-12-01T05:53:53.848Z,45.25
2022-12-01T05:56:25.570Z,40.97
2022-12-01T05:58:57.208Z,45.85
2022-12-01T06:01:28.791Z,42.03
2022-12-01T06:04:00.424Z,39.10
2022-12-01T06:06:34.789Z,43.97
2022-12-01T06:09:06.486Z,41.65
2022-12-01T06:11:38.098Z,42.10
2022-12-01T06:14:09.661Z,43.17
2022-12-01T06:16:41.546Z,44.10
2022-12-01T06:19:13.181Z,40.53
2022-12-01T06:21:44.757Z,45.42
2022-12-01T06:24:19.391Z,45.25
2022-12-01T06:26:51.050Z,46.17
2022-12-01T06:29:22.684Z,38.55
2022-12-01T06:31:54.276Z,38.78
2022-12-01T06:34:26.701Z,41.55
2022-12-01T06:37:01.455Z,42.47
2022-12-01T06:39:33.071Z,47.00
2022-12-01T06:42:06.579Z,47.50
2022-12-01T06:44:40.888Z,42.50
2022-12-01T06:47:12.653Z,33.13
2022-12-01T06:49:44.616Z,39.22
2022-12-01T06:52:16.338Z,43.60
2022-12-01T06:54:47.927Z,46.22
2022-12-01T06:57:19.868Z,43.83
2022-12-01T06:59:52.825Z,48.97
2022-12-01T07:02:24.948Z,42.45
2022-12-01T07:04:56.608Z,36.90
2022-12-01T07:07:28.176Z,41.50
2022-12-01T07:10:09.199Z,41.33
2022-12-01T07:12:41.133Z,39.58
2022-12-01T07:15:15.728Z,38.97
2022-12-01T07:17:47.336Z,44.80
2022-12-01T07:20:18.941Z,41.75
2022-12-01T07:22:50.576Z,39.42
2022-12-01T07:25:24.281Z,38.08
2022-12-01T07:27:56.720Z,39.42
2022-12-01T07:30:28.810Z,39.90
2022-12-01T07:33:00.800Z,39.80
2022-12-01T07:35:32.417Z,40.55
2022-12-01T07:38:04.049Z,37.10
2022-12-01T07:40:35.650Z,38.45
2022-12-01T07:43:09.980Z,39.38
2022-12-01T07:45:41.812Z,43.33
2022-12-01T07:48:13.489Z,48.72
2022-12-01T07:50:45.032Z,47.00
2022-12-01T07:53:16.585Z,46.95
2022-12-01T07:55:58.757Z,46.95
2022-12-01T07:58:33.705Z,46.15
2022-12-01T08:01:12.810Z,41.70
2022-12-01T08:03:44.993Z,49.00
2022-12-01T08:06:17.986Z,44.13
2022-12-01T08:08:52.888Z,47.33
2022-12-01T08:13:57.395Z,45.50
2022-12-01T08:16:31.130Z,47.55
2022-12-01T08:19:04.077Z,44.80
2022-12-01T08:21:37.461Z,41.65
2022-12-01T08:24:10.910Z,47.42
2022-12-01T08:26:42.605Z,43.40
2022-12-01T08:29:19.724Z,41.15
2022-12-01T08:31:51.950Z,44.47
2022-12-01T08:34:23.779Z,40.08
2022-12-01T08:36:55.445Z,42.17
2022-12-01T08:39:28.053Z,43.75
2022-12-01T08:42:00.155Z,45.72
2022-12-01T08:44:34.883Z,45.60
2022-12-01T08:49:38.192Z,44.13
2022-12-01T08:52:09.756Z,40.92
2022-12-01T08:54:41.305Z,40.80
2022-12-01T08:57:12.964Z,47.38
2022-12-01T08:59:44.623Z,43.70
2022-12-01T09:02:19.032Z,41.08
2022-12-01T09:04:51.713Z,42.08
2022-12-01T09:07:27.112Z,46.22
2022-12-01T09:09:59.161Z,45.47
2022-12-01T09:12:31.224Z,39.38
2022-12-01T09:15:03.159Z,41.55
2022-12-01T09:17:34.708Z,41.17
2022-12-01T09:20:10.211Z,39.30
2022-12-01T09:22:41.808Z,44.28
2022-12-01T09:25:14.737Z,43.70
2022-12-01T09:27:46.601Z,38.67
2022-12-01T09:30:24.682Z,35.10
2022-12-01T09:32:56.269Z,39.55
2022-12-01T09:35:27.815Z,32.67
2022-12-01T09:37:59.556Z,38.42
2022-12-01T09:40:40.168Z,37.25
2022-12-01T09:43:41.712Z,34.72
2022-12-01T09:46:20.279Z,36.08
2022-12-01T09:48:57.109Z,35.25
2022-12-01T09:51:34.871Z,36.63
2022-12-01T09:54:11.730Z,38.63
2022-12-01T09:56:50.401Z,29.67
2022-12-01T09:59:26.930Z,32.70
2022-12-01T10:02:33.411Z,39.55
2022-12-01T10:05:12.473Z,37.75
2022-12-01T10:07:50.350Z,35.80
2022-12-01T10:10:34.323Z,40.53
2022-12-01T10:13:28.180Z,36.22
2022-12-01T10:16:07.527Z,35.10
2022-12-01T10:19:26.106Z,35.20
2022-12-01T10:22:42.631Z,35.42
2022-12-01T10:25:25.678Z,35.20
2022-12-01T10:28:12.862Z,34.30
2022-12-01T10:30:52.679Z,38.92
2022-12-01T10:33:25.816Z,41.10
2022-12-01T10:35:58.015Z,33.80
2022-12-01T10:38:49.614Z,37.70
2022-12-01T10:41:24.535Z,37.95
2022-12-01T10:44:01.066Z,39.58
2022-12-01T10:46:47.644Z,42.78
2022-12-01T10:49:34.800Z,38.95
2022-12-01T10:52:33.008Z,39.75
2022-12-01T10:55:22.994Z,39.67
2022-12-01T10:57:57.750Z,35.20
2022-12-01T11:03:35.159Z,36.65
2022-12-01T11:06:07.758Z,34.33
2022-12-01T11:08:45.420Z,41.10
2022-12-01T11:11:36.526Z,36.70
2022-12-01T11:14:36.488Z,40.00
2022-12-01T11:17:25.714Z,35.75
2022-12-01T11:19:58.453Z,40.13
2022-12-01T11:22:33.068Z,38.78
2022-12-01T11:25:05.881Z,41.72
2022-12-01T11:27:57.701Z,38.53
2022-12-01T11:30:35.719Z,43.28
2022-12-01T11:33:07.436Z,43.58
2022-12-01T11:35:46.007Z,39.60
2022-12-01T11:38:30.679Z,39.88
2022-12-01T11:41:03.573Z,43.95
2022-12-01T11:43:41.617Z,41.40
2022-12-01T11:46:16.836Z,41.40
2022-12-01T11:49:00.465Z,43.30
2022-12-01T11:51:37.722Z,44.80
2022-12-01T11:54:44.322Z,40.45
2022-12-01T11:57:33.860Z,43.58
2022-12-01T12:00:29.648Z,44.55
2022-12-01T12:03:04.631Z,50.58
2022-12-01T12:05:52.862Z,42.42
2022-12-01T12:08:30.977Z,34.17
2022-12-01T12:11:17.438Z,44.05
2022-12-01T12:14:19.896Z,39.25
2022-12-01T12:17:19.295Z,44.17
2022-12-01T12:20:28.101Z,39.38
2022-12-01T12:23:20.264Z,42.50
2022-12-01T12:26:15.892Z,39.78
2022-12-01T12:29:14.025Z,42.45
2022-12-01T12:32:14.516Z,41.17
2022-12-01T12:35:06.030Z,41.63
2022-12-01T12:38:34.703Z,39.35
2022-12-01T12:41:24.149Z,47.55
2022-12-01T12:44:08.930Z,44.65
2022-12-01T12:47:08.072Z,38.92
2022-12-01T12:49:50.990Z,45.50
2022-12-01T12:52:28.862Z,44.63
2022-12-01T12:55:10.898Z,46.33
2022-12-01T12:57:48.810Z,41.08
2022-12-01T13:00:28.904Z,39.03
2022-12-01T13:03:38.539Z,40.08
2022-12-01T13:06:14.702Z,44.33
2022-12-01T13:09:14.291Z,43.10
2022-12-01T13:12:10.262Z,45.00
2022-12-01T13:14:59.460Z,46.03
2022-12-01T13:17:41.793Z,45.85
2022-12-01T13:20:21.094Z,45.03
2022-12-01T13:22:54.119Z,50.03
2022-12-01T13:25:39.557Z,49.38
2022-12-01T13:28:22.064Z,53.75
2022-12-01T13:31:01.821Z,46.95
2022-12-01T13:33:35.681Z,49.92
2022-12-01T13:39:18.064Z,46.78
2022-12-01T13:42:23.048Z,48.30
2022-12-01T13:45:01.588Z,49.67
2022-12-01T13:47:51.406Z,48.08
2022-12-01T13:50:44.579Z,57.10
2022-12-01T13:53:19.121Z,51.15
2022-12-01T13:56:23.558Z,52.00
2022-12-01T13:58:55.536Z,59.42
2022-12-01T14:01:27.186Z,55.63
2022-12-01T14:04:10.968Z,51.83
2022-12-01T14:06:50.997Z,59.35
2022-12-01T14:09:53.875Z,60.67
2022-12-01T14:12:30.348Z,55.70
2022-12-01T14:15:20.860Z,53.55
2022-12-01T14:18:04.338Z,57.15
2022-12-01T14:20:45.843Z,51.25
2022-12-01T14:23:33.928Z,51.38
2022-12-01T14:26:18.281Z,55.45
2022-12-01T14:28:55.970Z,56.03
2022-12-01T14:31:33.588Z,56.85
2022-12-01T14:34:15.752Z,60.55
2022-12-01T14:40:05.847Z,62.88
2022-12-01T14:43:00.082Z,60.22
2022-12-01T14:45:58.265Z,62.15
2022-12-01T14:48:39.338Z,59.38
2022-12-01T14:51:24.113Z,61.38
2022-12-01T14:53:57.892Z,66.00
2022-12-01T14:56:32.400Z,66.72
2022-12-01T14:59:19.170Z,65.78
2022-12-01T15:01:53.731Z,66.30
2022-12-01T15:04:28.505Z,68.25
2022-12-01T15:09:33.920Z,62.33
2022-12-01T15:12:07.626Z,66.40
2022-12-01T15:14:48.209Z,63.35
2022-12-01T15:17:35.824Z,66.68
2022-12-01T15:20:46.327Z,66.22
2022-12-01T15:23:19.391Z,63.65
2022-12-01T15:25:51.100Z,72.05
2022-12-01T15:28:36.172Z,71.95
2022-12-01T15:31:12.681Z,63.13
2022-12-01T15:33:52.935Z,66.70
2022-12-01T15:36:24.669Z,64.75
2022-12-01T15:39:03.568Z,66.50
2022-12-01T15:41:41.419Z,70.43
2022-12-01T15:44:22.823Z,67.00
2022-12-01T15:46:54.941Z,60.88
2022-12-01T15:49:32.916Z,61.70
2022-12-01T15:52:12.791Z,65.35
2022-12-01T15:54:48.420Z,63.55
2022-12-01T15:57:21.918Z,71.20
2022-12-01T15:59:56.457Z,65.10
2022-12-01T16:02:33.695Z,64.97
2022-12-01T16:05:14.362Z,59.85
2022-12-01T16:08:12.766Z,67.25
2022-12-01T16:10:39.236Z,64.90
2022-12-01T16:13:44.142Z,66.45
2022-12-01T16:16:42.298Z,66.88
2022-12-01T16:19:16.796Z,57.03
2022-12-01T16:21:55.680Z,66.35
2022-12-01T16:24:34.322Z,68.50
2022-12-01T16:27:20.275Z,68.95
2022-12-01T16:29:53.282Z,65.25
2022-12-01T16:32:39.361Z,64.15
2022-12-01T16:35:33.138Z,67.13
2022-12-01T16:38:13.245Z,63.08
2022-12-01T16:40:45.303Z,72.13
2022-12-01T16:43:25.174Z,61.28
2022-12-01T16:46:06.706Z,67.80
2022-12-01T16:48:38.454Z,63.15
2022-12-01T16:51:14.626Z,69.88
2022-12-01T16:53:50.959Z,67.47
2022-12-01T16:56:22.797Z,72.28
2022-12-01T16:58:54.394Z,66.82
2022-12-01T17:01:26.158Z,67.82
2022-12-01T17:04:06.082Z,58.25
2022-12-01T17:06:39.193Z,63.95
2022-12-01T17:09:10.920Z,69.22
2022-12-01T17:11:42.546Z,70.95
2022-12-01T17:14:14.164Z,69.22
2022-12-01T17:16:46.236Z,67.60
2022-12-01T17:19:20.776Z,70.97
2022-12-01T17:21:53.307Z,75.85
2022-12-01T17:24:25.993Z,69.95
2022-12-01T17:26:57.621Z,71.40
2022-12-01T17:29:29.251Z,68.68
2022-12-01T17:32:00.926Z,77.55
2022-12-01T17:34:32.514Z,68.88
2022-12-01T17:37:04.561Z,71.55
2022-12-01T17:39:36.225Z,71.18
2022-12-01T17:42:07.848Z,72.32
2022-12-01T17:44:39.379Z,66.78
2022-12-01T17:47:11.604Z,68.53
2022-12-01T17:49:43.663Z,64.28
2022-12-01T17:52:15.522Z,69.57
2022-12-01T17:54:47.297Z,65.18
2022-12-01T17:57:19.138Z,72.05
2022-12-01T17:59:50.837Z,65.60
2022-12-01T18:02:22.554Z,68.82
2022-12-01T18:04:54.841Z,67.55
2022-12-01T18:07:26.702Z,66.70
2022-12-01T18:09:58.318Z,66.95
2022-12-01T18:12:29.916Z,70.32
2022-12-01T18:15:01.590Z,69.60
2022-12-01T18:17:33.208Z,77.05
2022-12-01T18:20:06.509Z,67.95
2022-12-01T18:22:38.109Z,66.03
2022-12-01T18:25:12.203Z,70.93
2022-12-01T18:27:45.078Z,63.05
2022-12-01T18:30:16.885Z,73.63
2022-12-01T18:32:48.447Z,72.05
2022-12-01T18:35:20.106Z,67.38
2022-12-01T18:37:51.716Z,71.25
2022-12-01T18:40:24.125Z,65.65
2022-12-01T18:42:55.938Z,63.85
2022-12-01T18:45:27.507Z,64.85
2022-12-01T18:47:59.099Z,65.05
2022-12-01T18:50:30.734Z,54.95
2022-12-01T18:53:02.406Z,56.75
2022-12-01T18:55:40.490Z,56.88
2022-12-01T18:58:12.167Z,58.60
2022-12-01T19:00:43.859Z,54.55
2022-12-01T19:03:15.952Z,61.75
2022-12-01T19:05:47.587Z,58.92
2022-12-01T19:08:19.276Z,62.92
2022-12-01T19:11:01.707Z,62.70
2022-12-01T19:13:34.233Z,59.20
2022-12-01T19:16:08.431Z,55.58
2022-12-01T19:18:40.534Z,58.70
2022-12-01T19:21:18.601Z,58.40
2022-12-01T19:23:50.578Z,54.28
2022-12-01T19:26:23.193Z,55.28
2022-12-01T19:28:55.914Z,53.65
2022-12-01T19:31:27.709Z,53.63
2022-12-01T19:33:59.343Z,53.78
2022-12-01T19:36:31.028Z,60.15
2022-12-01T19:39:05.974Z,58.63
2022-12-01T19:41:41.303Z,53.72
2022-12-01T19:44:14.676Z,56.35
2022-12-01T19:46:46.256Z,58.25
2022-12-01T19:49:17.931Z,56.05
2022-12-01T19:51:49.621Z,59.00
2022-12-01T19:54:21.406Z,61.60
2022-12-01T19:56:53.081Z,61.45
2022-12-01T19:59:26.740Z,59.13
2022-12-01T20:01:58.566Z,54.97
2022-12-01T20:04:30.292Z,57.33
2022-12-01T20:07:02.125Z,58.33
2022-12-01T20:09:33.741Z,56.70
2022-12-01T20:12:05.472Z,52.20
2022-12-01T20:14:37.091Z,55.85
2022-12-01T20:17:14.327Z,59.88
2022-12-01T20:19:47.379Z,63.35
2022-12-01T20:22:19.113Z,60.42
2022-12-01T20:24:50.985Z,60.58
2022-12-01T20:27:22.709Z,56.45
2022-12-01T20:29:56.120Z,53.03
2022-12-01T20:32:27.820Z,66.78
2022-12-01T20:34:59.608Z,58.20
2022-12-01T20:37:31.277Z,59.38
2022-12-01T20:40:08.056Z,58.28
2022-12-01T20:42:39.744Z,58.25
2022-12-01T20:45:11.360Z,57.42
2022-12-01T20:47:43.042Z,62.33
2022-12-01T20:50:15.867Z,64.25
2022-12-01T20:52:47.468Z,61.25
2022-12-01T20:55:19.176Z,61.33
2022-12-01T20:57:50.999Z,57.03
2022-12-01T21:00:23.538Z,59.20
2022-12-01T21:02:56.958Z,61.75
2022-12-01T21:05:28.639Z,57.13
2022-12-01T21:08:01.722Z,63.60
2022-12-01T21:10:36.685Z,60.28
2022-12-01T21:13:42.508Z,66.50
2022-12-01T21:16:16.867Z,59.65
2022-12-01T21:18:56.121Z,59.80
2022-12-01T21:21:30.855Z,56.95
2022-12-01T21:24:16.668Z,59.67
2022-12-01T21:26:58.297Z,63.53
2022-12-01T21:29:49.831Z,62.08
2022-12-01T21:32:33.463Z,64.53
2022-12-01T21:35:16.518Z,62.42
2022-12-01T21:37:49.315Z,61.78
2022-12-01T21:40:23.834Z,61.78
2022-12-01T21:43:01.125Z,61.95
2022-12-01T21:45:32.735Z,66.05
2022-12-01T21:48:18.360Z,62.38
2022-12-01T21:51:00.712Z,60.03
2022-12-01T21:53:38.394Z,56.78
2022-12-01T21:56:21.282Z,64.10
2022-12-01T21:58:55.356Z,60.67
2022-12-01T22:01:31.871Z,62.03
2022-12-01T22:04:19.246Z,61.25
2022-12-01T22:06:55.965Z,61.67
2022-12-01T22:09:36.611Z,63.67
2022-12-01T22:12:28.891Z,62.40
2022-12-01T22:15:01.732Z,62.60
2022-12-01T22:17:36.836Z,65.07
2022-12-01T22:20:22.179Z,65.38
2022-12-01T22:22:53.761Z,67.72
2022-12-01T22:25:26.759Z,68.53
2022-12-01T22:27:59.958Z,62.17
2022-12-01T22:30:33.656Z,63.17
2022-12-01T22:33:14.770Z,61.42
2022-12-01T22:35:51.765Z,65.18
2022-12-01T22:38:26.377Z,63.45
2022-12-01T22:41:07.338Z,61.40
2022-12-01T22:43:47.456Z,63.28
2022-12-01T22:46:23.754Z,66.32
2022-12-01T22:49:01.497Z,58.10
2022-12-01T22:51:46.382Z,58.13
2022-12-01T22:54:17.943Z,62.00
2022-12-01T22:57:03.872Z,58.67
2022-12-01T22:59:37.966Z,63.67
2022-12-01T23:02:33.487Z,40.65
2022-12-01T23:07:57.685Z,62.67
2022-12-01T23:10:33.613Z,61.13
2022-12-01T23:13:24.641Z,59.08
2022-12-01T23:15:56.388Z,61.92
2022-12-01T23:18:32.136Z,64.72
2022-12-01T23:21:04.081Z,59.53
2022-12-01T23:23:37.421Z,55.95
2022-12-01T23:26:10.467Z,61.22
2022-12-01T23:28:42.144Z,60.60
2022-12-01T23:31:14.066Z,59.67
2022-12-01T23:33:45.777Z,62.47
2022-12-01T23:36:24.323Z,61.08
2022-12-01T23:39:01.370Z,55.40
2022-12-01T23:41:39.067Z,57.08
2022-12-01T23:44:24.067Z,60.95
2022-12-01T23:46:57.775Z,57.78
2022-12-01T23:49:33.120Z,56.35
2022-12-01T23:52:11.018Z,57.78
2022-12-01T23:54:42.725Z,61.03
2022-12-01T23:57:21.752Z,61.25
2022-12-01T23:59:58.306Z,56.97
